Aérodrome :
LOGIN :

S'inscrire | Disclaimer

   EN    FR    IT 

 










Légende :    VFR   VFR Marginal   IFR   IFR Intensif   IFR Très Intensif
Visi : 
Plafond : 
>= 8 km
>= 3000ft
5 à 8 km
1000 à 3000 ft
1500m à 5 km
500 à 1000 ft
800 à 1500m
200 à 500 ft
< 800m
< 200 ft
Symboles :   Orages  Brouillard  Fortes neiges  Fortes précipitations  Vent > 20 kt
SIGMETs :   Divers  Orages  Givrage  Turbulence  Onde Orograph.  Cendres Volcan.






- Altitude de l'aérodrome : 256 ft
- Code IATA : CFR


LFRK - Caen

DERNIER METAR :
  • 071300Z AUTO 23009KT 9999 SCT014 BKN019 OVC039 11/09 Q1017 TEMPO BKN011

METARs EXPIRÉS :
  • 071230Z AUTO 22010KT 9999 BKN013 BKN019 OVC038 11/10 Q1017 NOSIG
  • 071200Z AUTO 22010KT 9999 BKN011 BKN040 12/09 Q1017 BECMG BKN030
  • 071130Z AUTO 22011KT 9999 FEW011 BKN040 11/09 Q1017 NOSIG
  • 071100Z AUTO 23009KT 9999 FEW010 OVC042 11/09 Q1018 NOSIG
  • 071030Z AUTO 24008KT 9999 FEW025 OVC043 10/09 Q1018 NOSIG

TAF AMD TAF LFRK
Valide du 07 à 12h jusqu'au 07 à 21h UTC


071214Z 0712/0721 23010KT 9999 BKN030
TEMPO 0712/0718 BKN011
TEMPO 0718/0721 BKN008
Météo : +33 2 31 26 68 11



MET'MAP, la Météo Aéronautique d'un coup d'oeil ! - Copyright ORBIFLY Décembre 2007 - Disclaimer

ORBIFLY MET'MAP TEAM :

Programmation & Développement : Alexandra Zaïnal
Sur une idée originale de : Baudouin d'Aumeries
Assistance à la programmation : Marc-Olivier Méhu
Soutien technique & logistique : Manuel Goepfert

Contact : metmap@orbifly.com




SOURCES & CREDITS :

   NOAA